Time;durP1;ratioP1;P1;durP2;ratioP2;P2;SDS_P1;SDS_P2;PMS_P1;PMS_P2;Temp;Humidity;BMP_temperature;BMP_pressure;BME280_temperature;BME280_humidity;BME280_pressure;Samples;Min_cycle;Max_cycle;Signal;HPM_P1;HPM_P2
2023/02/14 00:00:04;;;;;;;;;;;;;;;5.03;51.36;101113.16;5080738;28;19913;-41
2023/02/14 00:02:29;;;;;;;;;;;;;;;4.80;51.34;101107.25;5081657;28;19920;-42
2023/02/14 00:04:54;;;;;;;;;;;;;;;4.58;52.01;101104.78;5081065;28;20155;-41
2023/02/14 00:07:20;;;;;;;;;;;;;;;4.68;51.81;101109.16;5078540;28;19916;-42
2023/02/14 00:09:45;;;;;;;;;;;;;;;4.84;52.42;101102.53;5078074;28;19923;-45
2023/02/14 00:12:10;;;;;;;;;;;;;;;5.12;51.22;101105.41;5073782;28;20293;-42
2023/02/14 00:17:19;;;;;;;;;;;;;;;4.72;50.68;101095.69;5081062;28;19962;-42
2023/02/14 00:19:44;;;;;;;;;;;;;;;4.51;50.83;101093.91;5077063;28;19923;-42
2023/02/14 00:22:10;;;;;;;;;;;;;;;4.52;51.34;101103.50;5079721;28;20371;-42
2023/02/14 00:24:35;;;;;;;;;;;;;;;4.64;51.64;101102.44;5080217;28;19947;-42
2023/02/14 00:27:00;;;;;;;;;;;;;;;4.73;50.17;101111.38;5081491;28;19919;-42
2023/02/14 00:29:28;;;;;;;;;;;;;;;4.71;50.72;101105.41;5079674;28;20407;-42
2023/02/14 00:31:53;;;;;;;;;;;;;;;4.91;51.06;101108.94;5079617;28;19919;-41
2023/02/14 00:34:19;;;;;;;;;;;;;;;4.97;49.63;101099.66;5081230;28;20258;-41
2023/02/14 00:36:45;;;;;;;;;;;;;;;5.01;51.40;101103.72;5079769;28;19912;-41
2023/02/14 00:39:11;;;;;;;;;;;;;;;4.42;50.98;101097.34;5090253;28;20399;-42
2023/02/14 00:41:37;;;;;;;;;;;;;;;4.28;51.69;101086.19;5090942;28;19920;-41
2023/02/14 00:44:02;;;;;;;;;;;;;;;4.45;51.39;101094.44;5090732;28;19970;-41
2023/02/14 00:46:28;;;;;;;;;;;;;;;4.35;50.56;101096.19;5090419;28;20504;-40
2023/02/14 00:48:53;;;;;;;;;;;;;;;5.15;50.61;101103.31;5090615;28;19912;-41
2023/02/14 00:51:19;;;;;;;;;;;;;;;5.05;48.99;101100.66;5090464;28;19935;-41
2023/02/14 00:53:45;;;;;;;;;;;;;;;4.72;50.14;101100.94;5090430;28;19912;-41
2023/02/14 00:56:11;;;;;;;;;;;;;;;4.92;49.63;101094.78;5090740;28;19923;-41
2023/02/14 00:58:36;;;;;;;;;;;;;;;4.81;49.67;101105.44;5090628;28;19912;-41
2023/02/14 01:01:02;;;;;;;;;;;;;;;4.53;50.31;101099.88;5090258;28;19933;-41
2023/02/14 01:03:27;;;;;;;;;;;;;;;4.59;50.36;101109.94;5090618;28;19912;-41
2023/02/14 01:05:53;;;;;;;;;;;;;;;4.74;49.35;101102.50;5093888;28;19912;-41
2023/02/14 01:08:18;;;;;;;;;;;;;;;4.81;49.08;101100.97;5094066;28;20343;-41
2023/02/14 01:10:44;;;;;;;;;;;;;;;4.47;50.46;101101.28;5093893;28;19913;-41
2023/02/14 01:13:10;;;;;;;;;;;;;;;4.36;50.07;101092.56;5094029;28;19919;-41
2023/02/14 01:15:39;;;;;;;;;;;;;;;4.58;50.76;101087.16;5094090;28;20019;-42
2023/02/14 01:18:04;;;;;;;;;;;;;;;4.75;49.45;101085.69;5094070;28;19985;-41
2023/02/14 01:20:30;;;;;;;;;;;;;;;4.92;49.44;101083.41;5094035;28;20346;-41
2023/02/14 01:22:55;;;;;;;;;;;;;;;4.83;49.28;101079.75;5093430;28;20387;-41
2023/02/14 01:25:20;;;;;;;;;;;;;;;4.58;49.09;101075.78;5093969;28;19947;-41
2023/02/14 01:27:46;;;;;;;;;;;;;;;4.65;49.32;101072.47;5093778;28;19919;-41
2023/02/14 01:30:11;;;;;;;;;;;;;;;4.36;49.93;101067.06;5093749;28;19934;-41
2023/02/14 01:32:36;;;;;;;;;;;;;;;4.66;49.95;101071.53;5093236;28;19912;-41
2023/02/14 01:35:02;;;;;;;;;;;;;;;4.76;49.22;101070.69;5093466;28;20340;-42
2023/02/14 01:37:28;;;;;;;;;;;;;;;4.89;48.99;101076.56;5093589;28;19913;-41
2023/02/14 01:39:54;;;;;;;;;;;;;;;4.64;49.90;101070.78;5093359;28;19912;-41
2023/02/14 01:42:19;;;;;;;;;;;;;;;4.31;50.22;101077.16;5093814;28;20378;-42
2023/02/14 01:44:44;;;;;;;;;;;;;;;4.07;51.99;101078.28;5091985;28;19969;-42
2023/02/14 01:47:10;;;;;;;;;;;;;;;4.49;51.61;101082.66;5093395;28;19912;-41
2023/02/14 01:49:47;;;;;;;;;;;;;;;4.62;51.49;101071.91;5093345;28;19938;-42
2023/02/14 01:52:16;;;;;;;;;;;;;;;4.74;50.93;101070.84;5093538;28;19912;-42
2023/02/14 01:54:45;;;;;;;;;;;;;;;4.85;50.42;101075.19;5092973;28;20042;-42
2023/02/14 01:57:13;;;;;;;;;;;;;;;4.80;49.59;101072.97;5093295;28;19924;-42
2023/02/14 01:59:42;;;;;;;;;;;;;;;4.47;50.51;101059.09;5092895;28;20372;-42
2023/02/14 02:02:08;;;;;;;;;;;;;;;4.71;50.43;101052.66;5093426;28;20492;-42
2023/02/14 02:04:36;;;;;;;;;;;;;;;4.81;49.48;101050.88;5092839;28;19919;-42
2023/02/14 02:07:03;;;;;;;;;;;;;;;4.61;50.53;101052.63;5093425;28;19916;-42
2023/02/14 02:09:43;;;;;;;;;;;;;;;4.22;50.69;101043.69;5092703;28;19958;-41
2023/02/14 02:12:09;;;;;;;;;;;;;;;4.37;50.52;101028.38;5093024;28;19978;-41
2023/02/14 02:14:34;;;;;;;;;;;;;;;4.64;50.20;101033.88;5092678;28;19916;-42
2023/02/14 02:17:18;;;;;;;;;;;;;;;4.69;50.25;101030.84;5092493;28;19912;-42
2023/02/14 02:19:55;;;;;;;;;;;;;;;4.94;49.09;101033.97;5093083;28;19920;-41
2023/02/14 02:22:38;;;;;;;;;;;;;;;5.08;49.29;101038.84;5092688;28;20364;-41
2023/02/14 02:25:16;;;;;;;;;;;;;;;4.67;49.21;101030.97;5092781;28;19912;-41
2023/02/14 02:27:44;;;;;;;;;;;;;;;4.47;49.86;101034.50;5092589;28;19916;-41
2023/02/14 02:30:12;;;;;;;;;;;;;;;4.61;48.87;101013.06;5092385;28;19912;-41
2023/02/14 02:32:55;;;;;;;;;;;;;;;4.70;49.93;101024.59;5092423;28;20285;-41
2023/02/14 02:35:21;;;;;;;;;;;;;;;4.30;50.36;101021.00;5092078;28;20011;-41
2023/02/14 02:37:46;;;;;;;;;;;;;;;4.38;49.93;101008.94;5092038;28;20050;-42
2023/02/14 02:40:11;;;;;;;;;;;;;;;4.53;49.44;101015.50;5092263;28;20371;-42
2023/02/14 02:42:55;;;;;;;;;;;;;;;4.57;49.38;101024.84;5092828;28;20034;-42
2023/02/14 02:46:46;;;;;;;;;;;;;;;4.66;50.33;101026.69;5092346;28;19916;-42
2023/02/14 02:48:25;;;;;;;;;;;;;;;4.33;50.64;101030.44;5091204;28;19918;-42
2023/02/14 02:53:44;;;;;;;;;;;;;;;4.24;50.83;101024.13;5092424;28;19960;-42
2023/02/14 02:59:17;;;;;;;;;;;;;;;4.16;50.56;101023.97;5091814;28;19961;-42
2023/02/14 03:01:43;;;;;;;;;;;;;;;4.49;50.46;101019.38;5092542;28;19912;-42
2023/02/14 03:06:54;;;;;;;;;;;;;;;5.06;50.22;101020.53;5092925;28;19961;-42
2023/02/14 03:09:20;;;;;;;;;;;;;;;5.22;48.83;101005.97;5092097;28;19912;-42
2023/02/14 03:11:55;;;;;;;;;;;;;;;4.81;50.54;101000.75;5092571;28;19969;-42
2023/02/14 03:14:32;;;;;;;;;;;;;;;4.37;49.82;100992.28;5092503;28;20057;-42
2023/02/14 03:17:16;;;;;;;;;;;;;;;4.49;50.22;100999.16;5092713;28;19916;-42
2023/02/14 03:20:16;;;;;;;;;;;;;;;4.43;50.43;100994.38;5091996;28;19935;-42
2023/02/14 03:23:00;;;;;;;;;;;;;;;4.68;50.10;100987.84;5091893;28;19920;-41
2023/02/14 03:25:26;;;;;;;;;;;;;;;4.56;49.49;100988.91;5092329;28;20368;-42
2023/02/14 03:28:00;;;;;;;;;;;;;;;4.50;50.91;100987.63;5091858;28;19912;-41
2023/02/14 03:30:37;;;;;;;;;;;;;;;4.36;49.97;100976.59;5091927;28;19934;-42
2023/02/14 03:33:05;;;;;;;;;;;;;;;4.35;49.96;100982.84;5092332;28;20026;-41
2023/02/14 03:35:45;;;;;;;;;;;;;;;4.57;49.68;100977.41;5091855;28;19916;-42
2023/02/14 03:38:34;;;;;;;;;;;;;;;4.26;50.61;100969.50;5091944;28;20003;-41
2023/02/14 03:41:02;;;;;;;;;;;;;;;4.33;50.54;100976.88;5090595;28;19951;-42
2023/02/14 03:43:48;;;;;;;;;;;;;;;4.18;51.53;100992.22;5091972;28;19975;-42
2023/02/14 03:46:17;;;;;;;;;;;;;;;4.04;52.10;100990.75;5091514;28;19995;-42
2023/02/14 03:48:43;;;;;;;;;;;;;;;4.11;51.80;100978.72;5091767;28;20003;-43
2023/02/14 03:51:10;;;;;;;;;;;;;;;3.98;51.28;100981.59;5091394;28;19959;-43
2023/02/14 03:53:39;;;;;;;;;;;;;;;4.13;52.61;100982.06;5091722;28;19942;-42
2023/02/14 03:56:09;;;;;;;;;;;;;;;4.41;50.44;100990.22;5091434;28;20010;-42
2023/02/14 03:58:37;;;;;;;;;;;;;;;4.35;50.61;101001.31;5091415;28;20280;-42
2023/02/14 04:01:09;;;;;;;;;;;;;;;4.17;50.47;100994.03;5091344;28;19973;-41
2023/02/14 04:03:38;;;;;;;;;;;;;;;4.46;49.97;100991.50;5091187;28;19912;-42
2023/02/14 04:06:03;;;;;;;;;;;;;;;4.24;50.30;100992.50;5071377;28;19916;-42
2023/02/14 04:08:28;;;;;;;;;;;;;;;4.19;51.16;100989.44;5075721;28;19969;-40
2023/02/14 04:10:56;;;;;;;;;;;;;;;4.35;50.45;100980.22;5091145;28;19912;-41
2023/02/14 04:13:21;;;;;;;;;;;;;;;4.24;50.48;100970.59;5091144;28;19919;-42
2023/02/14 04:15:47;;;;;;;;;;;;;;;4.53;49.81;100970.69;5091423;28;19916;-41
2023/02/14 04:20:56;;;;;;;;;;;;;;;4.12;50.21;100969.84;5091281;28;20314;-42
2023/02/14 04:23:21;;;;;;;;;;;;;;;4.17;51.99;100962.41;5090642;28;19920;-42
2023/02/14 04:25:47;;;;;;;;;;;;;;;4.46;49.73;100956.41;5091151;28;19916;-42
2023/02/14 04:28:12;;;;;;;;;;;;;;;4.62;50.90;100955.88;5090825;28;19912;-41
2023/02/14 04:30:37;;;;;;;;;;;;;;;4.41;49.92;100958.59;5091413;28;20015;-42
2023/02/14 04:33:03;;;;;;;;;;;;;;;4.46;49.86;100956.41;5091102;28;19912;-42
2023/02/14 04:35:28;;;;;;;;;;;;;;;4.61;51.33;100955.06;5090942;28;19916;-42
2023/02/14 04:37:54;;;;;;;;;;;;;;;4.50;50.36;100947.25;5091495;28;19912;-42
2023/02/14 04:40:19;;;;;;;;;;;;;;;4.53;49.95;100940.88;5094214;28;19912;-42
2023/02/14 04:42:45;;;;;;;;;;;;;;;4.52;49.63;100940.03;5095795;28;19951;-42
2023/02/14 04:45:10;;;;;;;;;;;;;;;4.48;50.50;100939.47;5095440;28;20272;-42
2023/02/14 04:47:36;;;;;;;;;;;;;;;4.57;50.68;100942.25;5095297;28;20415;-41
2023/02/14 04:50:01;;;;;;;;;;;;;;;4.38;49.67;100932.50;5094813;28;19912;-41
2023/02/14 04:52:26;;;;;;;;;;;;;;;4.47;50.21;100929.06;5095173;28;19935;-42
2023/02/14 04:54:52;;;;;;;;;;;;;;;4.44;49.36;100929.34;5094610;28;19916;-42
2023/02/14 04:57:17;;;;;;;;;;;;;;;4.62;48.75;100934.78;5095053;28;19938;-41
2023/02/14 04:59:42;;;;;;;;;;;;;;;5.03;48.36;100928.47;5094730;28;20360;-42
2023/02/14 05:02:07;;;;;;;;;;;;;;;5.20;47.22;100932.22;5096969;28;19977;-42
2023/02/14 05:04:33;;;;;;;;;;;;;;;5.16;47.39;100922.91;5114514;28;19912;-42
2023/02/14 05:06:58;;;;;;;;;;;;;;;5.08;47.03;100910.41;5115063;28;19911;-42
2023/02/14 05:09:23;;;;;;;;;;;;;;;4.83;47.64;100905.66;5096021;28;20372;-41
2023/02/14 05:11:48;;;;;;;;;;;;;;;4.89;47.49;100900.69;5094849;28;19919;-42
2023/02/14 05:14:14;;;;;;;;;;;;;;;4.73;47.99;100896.94;5095185;28;19912;-41
2023/02/14 05:16:39;;;;;;;;;;;;;;;4.73;47.96;100902.19;5111181;28;19911;-41
2023/02/14 05:19:04;;;;;;;;;;;;;;;4.68;47.99;100913.16;5112902;28;19919;-41
2023/02/14 05:21:31;;;;;;;;;;;;;;;4.57;48.42;100906.22;5114642;28;20292;-41
2023/02/14 05:23:57;;;;;;;;;;;;;;;5.15;49.46;100907.22;5087599;28;20323;-42
2023/02/14 05:26:23;;;;;;;;;;;;;;;5.98;50.67;100908.31;5094147;28;20409;-42
2023/02/14 05:28:48;;;;;;;;;;;;;;;6.57;51.49;100927.38;5094107;28;19912;-42
2023/02/14 05:31:13;;;;;;;;;;;;;;;6.92;52.59;100932.84;5094392;28;19912;-42
2023/02/14 05:33:38;;;;;;;;;;;;;;;8.11;48.32;100930.59;5094942;28;19918;-42
2023/02/14 05:36:04;;;;;;;;;;;;;;;7.43;46.13;100916.25;5094243;28;20373;-42
2023/02/14 05:38:30;;;;;;;;;;;;;;;7.55;45.23;100916.81;5093552;28;19913;-43
2023/02/14 05:40:55;;;;;;;;;;;;;;;7.07;43.42;100922.56;5094061;28;20049;-41
2023/02/14 05:43:20;;;;;;;;;;;;;;;6.30;45.08;100922.09;5093665;28;20268;-41
2023/02/14 05:45:47;;;;;;;;;;;;;;;6.41;44.72;100924.53;5092132;28;19959;-41
2023/02/14 05:48:12;;;;;;;;;;;;;;;6.03;46.01;100911.34;5093361;28;19919;-42
2023/02/14 05:50:37;;;;;;;;;;;;;;;6.04;45.89;100913.03;5092837;28;20090;-41
2023/02/14 05:53:03;;;;;;;;;;;;;;;5.87;45.87;100908.47;5093401;28;19912;-42
2023/02/14 05:55:29;;;;;;;;;;;;;;;6.12;45.72;100907.00;5084012;28;19916;-41
2023/02/14 05:57:54;;;;;;;;;;;;;;;6.43;45.98;100898.78;5073081;28;19913;-42
2023/02/14 06:00:20;;;;;;;;;;;;;;;6.02;46.23;100888.56;5080574;28;20342;-42
2023/02/14 06:02:45;;;;;;;;;;;;;;;6.04;46.83;100893.69;5082573;28;19912;-42
2023/02/14 06:05:10;;;;;;;;;;;;;;;6.45;44.89;100899.44;5083107;28;19912;-42
2023/02/14 06:07:36;;;;;;;;;;;;;;;6.97;44.54;100904.13;5089687;28;19916;-42
2023/02/14 06:10:01;;;;;;;;;;;;;;;6.63;44.72;100895.03;5085286;28;20372;-42
2023/02/14 06:12:26;;;;;;;;;;;;;;;6.82;45.34;100901.19;5080316;28;19916;-42
2023/02/14 06:14:51;;;;;;;;;;;;;;;6.78;43.74;100905.09;5080232;28;20432;-41
2023/02/14 06:17:17;;;;;;;;;;;;;;;7.02;43.80;100907.97;5082254;28;19972;-38
2023/02/14 06:19:42;;;;;;;;;;;;;;;6.88;44.04;100902.38;5091154;28;20415;-41
2023/02/14 06:22:08;;;;;;;;;;;;;;;7.02;43.63;100902.66;5089503;28;19921;-42
2023/02/14 06:24:33;;;;;;;;;;;;;;;7.33;43.58;100894.34;5086448;28;19912;-41
2023/02/14 06:26:58;;;;;;;;;;;;;;;7.73;42.15;100902.69;5084823;28;19956;-42
2023/02/14 06:29:24;;;;;;;;;;;;;;;7.42;42.46;100893.41;5097577;28;19934;-42
2023/02/14 06:31:49;;;;;;;;;;;;;;;7.39;42.72;100890.25;5105103;28;19927;-42
2023/02/14 06:34:14;;;;;;;;;;;;;;;7.63;42.28;100892.19;5101769;28;20373;-42
2023/02/14 06:36:39;;;;;;;;;;;;;;;8.15;41.01;100892.16;5098931;28;20015;-43
2023/02/14 06:39:05;;;;;;;;;;;;;;;8.31;40.69;100898.50;5090090;28;19938;-43
2023/02/14 06:41:30;;;;;;;;;;;;;;;7.72;41.34;100887.78;5091576;28;19916;-41
2023/02/14 06:43:55;;;;;;;;;;;;;;;7.97;41.75;100894.06;5095765;28;19977;-42
2023/02/14 06:46:21;;;;;;;;;;;;;;;8.86;39.84;100899.84;5107859;28;20368;-42
2023/02/14 06:48:46;;;;;;;;;;;;;;;8.95;39.90;100907.66;5112123;28;20318;-42
2023/02/14 06:51:12;;;;;;;;;;;;;;;9.09;39.05;100908.00;5112232;28;19919;-42
2023/02/14 06:53:37;;;;;;;;;;;;;;;9.07;39.45;100904.66;5111601;28;19918;-42
2023/02/14 06:56:03;;;;;;;;;;;;;;;9.02;39.39;100902.50;5084365;28;19916;-42
2023/02/14 06:58:29;;;;;;;;;;;;;;;8.88;39.93;100898.66;5072013;28;20007;-43
2023/02/14 07:00:55;;;;;;;;;;;;;;;9.33;39.23;100905.34;5071659;28;19982;-43
2023/02/14 07:03:20;;;;;;;;;;;;;;;9.15;38.89;100904.66;5069735;28;19912;-42
2023/02/14 07:05:45;;;;;;;;;;;;;;;9.71;38.50;100889.66;5070231;28;20397;-42
2023/02/14 07:08:11;;;;;;;;;;;;;;;9.71;38.62;100899.44;5069698;28;20304;-41
2023/02/14 07:10:36;;;;;;;;;;;;;;;9.43;38.55;100897.19;5070056;28;19953;-41
2023/02/14 07:13:02;;;;;;;;;;;;;;;10.00;37.70;100906.03;5070116;28;19916;-42
2023/02/14 07:15:27;;;;;;;;;;;;;;;10.02;37.28;100899.53;5070264;28;19924;-42
2023/02/14 07:17:52;;;;;;;;;;;;;;;10.18;37.08;100898.66;5071136;28;19919;-42
2023/02/14 07:20:18;;;;;;;;;;;;;;;10.23;36.91;100901.63;5071391;28;19970;-41
2023/02/14 07:22:43;;;;;;;;;;;;;;;11.61;35.55;100900.00;5071301;28;19951;-42
2023/02/14 07:25:09;;;;;;;;;;;;;;;11.28;35.45;100900.31;5071732;28;19947;-42
2023/02/14 07:27:34;;;;;;;;;;;;;;;11.30;35.37;100909.78;5071413;28;20361;-41
2023/02/14 07:29:59;;;;;;;;;;;;;;;11.89;35.47;100892.22;5071176;28;19912;-42
2023/02/14 07:32:25;;;;;;;;;;;;;;;11.62;34.82;100889.16;5071118;28;19912;-42
2023/02/14 07:34:50;;;;;;;;;;;;;;;11.47;35.10;100896.31;5070768;28;19924;-42
2023/02/14 07:37:16;;;;;;;;;;;;;;;10.57;36.55;100884.53;5070886;28;19938;-41
2023/02/14 07:39:42;;;;;;;;;;;;;;;11.34;35.50;100878.28;5071324;28;19966;-42
2023/02/14 07:42:07;;;;;;;;;;;;;;;10.81;36.11;100880.03;5070999;28;19920;-42
2023/02/14 07:44:33;;;;;;;;;;;;;;;11.18;36.67;100889.09;5070970;28;20226;-42
2023/02/14 07:46:58;;;;;;;;;;;;;;;10.89;36.90;100886.16;5070912;28;20435;-42
2023/02/14 07:49:23;;;;;;;;;;;;;;;12.11;35.33;100882.50;5071120;28;19912;-41
2023/02/14 07:51:48;;;;;;;;;;;;;;;12.65;34.29;100886.63;5071343;28;19913;-42
2023/02/14 07:54:14;;;;;;;;;;;;;;;11.96;34.97;100881.69;5071113;28;19914;-41
2023/02/14 07:56:39;;;;;;;;;;;;;;;12.13;35.18;100873.28;5070885;28;20061;-42
2023/02/14 07:59:04;;;;;;;;;;;;;;;12.44;34.12;100876.72;5071252;28;19912;-42
2023/02/14 08:01:30;;;;;;;;;;;;;;;12.28;34.38;100869.75;5070934;28;19912;-42
2023/02/14 08:03:55;;;;;;;;;;;;;;;12.08;34.48;100873.00;5071143;28;19995;-42
2023/02/14 08:06:20;;;;;;;;;;;;;;;12.04;34.91;100879.72;5070858;28;19962;-42
2023/02/14 08:08:46;;;;;;;;;;;;;;;12.29;34.56;100880.25;5071100;28;20267;-42
2023/02/14 08:12:57;;;;;;;;;;;;;;;12.27;34.81;100884.13;5070473;28;19942;-42
2023/02/14 08:13:58;;;;;;;;;;;;;;;12.34;34.58;100871.69;5069843;28;19913;-42
2023/02/14 08:16:23;;;;;;;;;;;;;;;12.40;34.07;100884.28;5070105;28;19916;-41
2023/02/14 08:18:48;;;;;;;;;;;;;;;12.24;34.09;100893.34;5070258;28;19917;-42
2023/02/14 08:21:16;;;;;;;;;;;;;;;12.98;33.68;100900.28;5070439;28;19913;-42
2023/02/14 08:23:41;;;;;;;;;;;;;;;13.97;32.33;100903.94;5070755;28;19987;-43
2023/02/14 08:26:06;;;;;;;;;;;;;;;13.81;32.02;100899.75;5070744;28;19944;-41
2023/02/14 08:28:32;;;;;;;;;;;;;;;14.57;31.90;100914.97;5070558;28;20376;-45
2023/02/14 08:30:57;;;;;;;;;;;;;;;13.19;33.31;100904.78;5070415;28;19955;-43
2023/02/14 08:33:22;;;;;;;;;;;;;;;12.47;34.25;100903.88;5070681;28;19920;-41
2023/02/14 08:35:48;;;;;;;;;;;;;;;12.44;34.40;100906.91;5070607;28;19974;-42
2023/02/14 08:38:13;;;;;;;;;;;;;;;13.43;33.21;100918.81;5070195;28;20309;-42
2023/02/14 08:40:38;;;;;;;;;;;;;;;12.06;35.41;100912.38;5077856;28;19969;-43
2023/02/14 08:43:05;;;;;;;;;;;;;;;12.73;34.65;100915.88;5090888;28;19916;-42
2023/02/14 08:45:30;;;;;;;;;;;;;;;12.96;33.71;100914.88;5090535;28;20374;-43
2023/02/14 08:47:59;;;;;;;;;;;;;;;13.11;33.64;100915.63;5090479;28;19919;-42
2023/02/14 08:50:24;;;;;;;;;;;;;;;12.23;34.53;100912.19;5090498;28;19912;-41
2023/02/14 08:52:50;;;;;;;;;;;;;;;13.10;34.42;100914.81;5090844;28;19912;-42
2023/02/14 08:55:15;;;;;;;;;;;;;;;13.03;34.33;100905.06;5090141;28;20356;-42
2023/02/14 08:57:40;;;;;;;;;;;;;;;12.56;35.04;100893.91;5090672;28;19962;-42
2023/02/14 09:00:06;;;;;;;;;;;;;;;12.97;34.37;100892.50;5090392;28;19947;-41
2023/02/14 09:02:31;;;;;;;;;;;;;;;12.69;34.47;100896.72;5090256;28;19943;-41
2023/02/14 09:04:57;;;;;;;;;;;;;;;12.38;34.68;100894.31;5090414;28;19950;-41
2023/02/14 09:07:22;;;;;;;;;;;;;;;12.59;34.23;100880.19;5090180;28;19912;-42
2023/02/14 09:09:47;;;;;;;;;;;;;;;13.11;34.19;100880.88;5089846;28;19919;-42
2023/02/14 09:12:13;;;;;;;;;;;;;;;12.54;34.24;100863.91;5090109;28;20232;-40
2023/02/14 09:14:40;;;;;;;;;;;;;;;12.51;34.14;100867.78;5090173;28;20383;-43
2023/02/14 09:17:05;;;;;;;;;;;;;;;12.54;34.85;100863.91;5090490;28;19989;-41
2023/02/14 09:19:31;;;;;;;;;;;;;;;12.79;34.34;100859.00;5090487;28;20380;-41
2023/02/14 09:21:57;;;;;;;;;;;;;;;12.29;34.59;100850.88;5089968;28;19924;-42
2023/02/14 09:24:22;;;;;;;;;;;;;;;11.69;36.33;100852.78;5090014;28;19961;-41
2023/02/14 09:26:47;;;;;;;;;;;;;;;12.27;35.48;100863.59;5093575;28;19999;-42
2023/02/14 09:29:14;;;;;;;;;;;;;;;12.44;34.98;100853.53;5093502;28;19912;-42
2023/02/14 09:31:40;;;;;;;;;;;;;;;11.90;35.97;100851.25;5094094;28;19912;-42
2023/02/14 09:34:05;;;;;;;;;;;;;;;12.02;35.72;100809.72;5090352;28;19924;-42
2023/02/14 09:39:14;;;;;;;;;;;;;;;12.07;36.11;100846.50;5083632;28;20010;-40
2023/02/14 09:41:52;;;;;;;;;;;;;;;11.62;36.67;100838.50;5082920;28;19938;-45
2023/02/14 09:44:23;;;;;;;;;;;;;;;12.68;34.95;100843.53;5083591;28;19926;-42
2023/02/14 09:46:51;;;;;;;;;;;;;;;12.32;34.44;100834.50;5082198;28;20007;-42
2023/02/14 09:49:17;;;;;;;;;;;;;;;12.56;35.19;100842.34;5081948;28;19918;-42
2023/02/14 09:51:46;;;;;;;;;;;;;;;12.97;34.49;100836.38;5083729;28;20272;-43
2023/02/14 09:54:13;;;;;;;;;;;;;;;12.09;35.33;100829.31;5082915;28;19912;-42
2023/02/14 09:56:49;;;;;;;;;;;;;;;12.06;35.67;100819.00;5081915;28;19923;-42
2023/02/14 09:59:18;;;;;;;;;;;;;;;12.43;35.17;100811.84;5083177;28;19935;-42
2023/02/14 10:01:58;;;;;;;;;;;;;;;12.66;34.84;100806.31;5081722;28;19919;-42
2023/02/14 10:04:54;;;;;;;;;;;;;;;12.94;34.69;100816.19;5081658;28;20019;-43
2023/02/14 10:07:45;;;;;;;;;;;;;;;12.89;34.08;100813.28;5084308;28;19923;-41
2023/02/14 10:10:34;;;;;;;;;;;;;;;12.28;34.62;100809.22;5092337;28;19912;-41
2023/02/14 10:13:21;;;;;;;;;;;;;;;12.61;34.78;100802.56;5086249;28;20360;-41
2023/02/14 10:15:49;;;;;;;;;;;;;;;12.84;34.68;100799.69;5083731;28;20679;-42
2023/02/14 10:18:17;;;;;;;;;;;;;;;12.82;34.35;100791.03;5082211;28;19913;-42
2023/02/14 10:20:44;;;;;;;;;;;;;;;12.71;34.25;100795.03;5081992;28;20379;-42
2023/02/14 10:23:31;;;;;;;;;;;;;;;13.14;33.41;100743.41;5075108;28;19928;-43
2023/02/14 10:26:00;;;;;;;;;;;;;;;12.35;34.80;100774.56;5087462;28;20007;-42
2023/02/14 10:28:32;;;;;;;;;;;;;;;12.00;35.73;100785.09;5092678;28;19952;-42
2023/02/14 10:31:15;;;;;;;;;;;;;;;12.01;35.93;100796.56;5092603;28;20011;-44
2023/02/14 10:33:43;;;;;;;;;;;;;;;12.74;34.83;100792.00;5092198;28;20007;-43
2023/02/14 10:36:18;;;;;;;;;;;;;;;12.96;34.54;100781.28;5092196;28;20031;-42
2023/02/14 10:38:43;;;;;;;;;;;;;;;12.61;34.16;100778.53;5091617;28;20348;-42
2023/02/14 10:41:27;;;;;;;;;;;;;;;12.35;35.41;100774.56;5092492;28;19923;-41
2023/02/14 10:44:12;;;;;;;;;;;;;;;13.21;33.78;100777.16;5092517;28;19923;-43
2023/02/14 10:46:41;;;;;;;;;;;;;;;13.30;33.06;100762.63;5092018;28;19965;-42
2023/02/14 10:49:25;;;;;;;;;;;;;;;12.67;34.62;100751.88;5090757;28;19926;-42
2023/02/14 10:51:50;;;;;;;;;;;;;;;13.26;33.98;100758.66;5090514;28;19912;-42
2023/02/14 10:54:21;;;;;;;;;;;;;;;13.25;33.44;100761.53;5091177;28;19965;-35
2023/02/14 10:56:46;;;;;;;;;;;;;;;12.96;33.81;100757.22;5090961;28;19916;-35
2023/02/14 10:59:26;;;;;;;;;;;;;;;12.64;34.51;100748.75;5090483;28;19919;-37
2023/02/14 11:01:53;;;;;;;;;;;;;;;13.26;33.70;100747.16;5091696;28;19912;-36
2023/02/14 11:04:19;;;;;;;;;;;;;;;12.72;34.11;100743.28;5091917;28;19935;-40
2023/02/14 11:06:47;;;;;;;;;;;;;;;12.23;34.99;100739.56;5091980;28;19916;-40
2023/02/14 11:09:13;;;;;;;;;;;;;;;13.23;33.64;100750.22;5091595;28;19912;-38
2023/02/14 11:11:47;;;;;;;;;;;;;;;13.11;33.47;100744.59;5082077;28;20370;-37
2023/02/14 11:14:27;;;;;;;;;;;;;;;12.62;34.47;100732.09;5071609;28;19913;-37
2023/02/14 11:16:53;;;;;;;;;;;;;;;12.94;34.25;100725.38;5071177;28;20289;-38
2023/02/14 11:19:21;;;;;;;;;;;;;;;13.40;33.20;100729.38;5071642;28;19977;-37
2023/02/14 11:21:47;;;;;;;;;;;;;;;12.90;34.27;100713.41;5071378;28;20391;-36
2023/02/14 11:24:29;;;;;;;;;;;;;;;12.51;34.96;100720.13;5071279;28;19919;-36
2023/02/14 11:26:57;;;;;;;;;;;;;;;12.92;33.94;100716.72;5071165;28;20483;-38
2023/02/14 11:29:27;;;;;;;;;;;;;;;12.77;34.95;100718.66;5070806;28;20410;-37
2023/02/14 11:31:53;;;;;;;;;;;;;;;12.65;35.16;100715.72;5070909;28;19912;-37
2023/02/14 11:34:35;;;;;;;;;;;;;;;13.09;34.44;100717.25;5070984;28;19936;-37
2023/02/14 11:37:01;;;;;;;;;;;;;;;12.95;35.02;100729.69;5070991;28;20372;-36
2023/02/14 11:39:28;;;;;;;;;;;;;;;12.76;35.28;100722.38;5071179;28;19913;-36
2023/02/14 11:41:55;;;;;;;;;;;;;;;13.07;35.12;100722.78;5071262;28;20061;-38
2023/02/14 11:44:22;;;;;;;;;;;;;;;12.69;35.39;100709.78;5071027;28;19920;-37
2023/02/14 11:46:48;;;;;;;;;;;;;;;12.84;34.86;100709.69;5071145;28;19927;-37
2023/02/14 11:49:34;;;;;;;;;;;;;;;12.70;35.28;100703.44;5071082;28;19912;-36
2023/02/14 11:52:08;;;;;;;;;;;;;;;13.79;33.63;100718.03;5070736;28;20394;-38
2023/02/14 11:54:34;;;;;;;;;;;;;;;12.98;34.31;100680.38;5070589;28;19920;-37
2023/02/14 11:57:03;;;;;;;;;;;;;;;13.10;34.77;100702.88;5070763;28;20377;-37
2023/02/14 11:59:34;;;;;;;;;;;;;;;13.28;35.06;100694.31;5071230;28;20003;-36
2023/02/14 12:02:01;;;;;;;;;;;;;;;12.56;35.66;100693.66;5070745;28;20017;-37
2023/02/14 12:04:34;;;;;;;;;;;;;;;12.08;36.14;100693.44;5070536;28;19912;-37
2023/02/14 12:07:19;;;;;;;;;;;;;;;12.14;36.63;100692.66;5070585;28;19927;-37
2023/02/14 12:09:46;;;;;;;;;;;;;;;12.32;36.35;100679.72;5070630;28;19999;-37
2023/02/14 12:12:29;;;;;;;;;;;;;;;12.03;36.65;100679.81;5070828;28;19912;-37
2023/02/14 12:15:10;;;;;;;;;;;;;;;12.13;36.56;100681.16;5070802;28;19917;-37
2023/02/14 12:17:38;;;;;;;;;;;;;;;12.35;35.76;100683.81;5070915;28;19920;-38
2023/02/14 12:20:03;;;;;;;;;;;;;;;12.46;35.51;100675.28;5070962;28;19916;-38
2023/02/14 12:22:32;;;;;;;;;;;;;;;12.08;35.53;100667.56;5070478;28;20226;-37
2023/02/14 12:25:09;;;;;;;;;;;;;;;11.90;36.55;100672.53;5070597;28;20315;-37
2023/02/14 12:27:50;;;;;;;;;;;;;;;12.36;35.51;100679.34;5070968;28;20019;-36
2023/02/14 12:30:17;;;;;;;;;;;;;;;12.32;34.71;100681.56;5070815;28;19916;-38
2023/02/14 12:32:49;;;;;;;;;;;;;;;12.25;35.18;100672.66;5070589;28;20411;-37
2023/02/14 12:35:16;;;;;;;;;;;;;;;12.69;34.84;100663.56;5070086;28;19916;-37
2023/02/14 12:37:52;;;;;;;;;;;;;;;12.56;35.20;100674.13;5070704;28;19987;-37
2023/02/14 12:40:29;;;;;;;;;;;;;;;11.61;36.89;100673.41;5070523;28;19916;-37
2023/02/14 12:43:13;;;;;;;;;;;;;;;11.52;36.84;100670.03;5070485;28;19920;-37
2023/02/14 12:45:42;;;;;;;;;;;;;;;11.69;36.49;100679.47;5070202;28;20370;-37
2023/02/14 12:48:30;;;;;;;;;;;;;;;11.52;36.71;100670.84;5070437;28;20296;-38
2023/02/14 12:50:58;;;;;;;;;;;;;;;11.37;37.25;100677.22;5070303;28;19918;-36
2023/02/14 12:53:34;;;;;;;;;;;;;;;12.06;36.49;100663.44;5070580;28;19912;-37
2023/02/14 12:56:14;;;;;;;;;;;;;;;11.48;36.90;100660.72;5070065;28;19924;-37
2023/02/14 12:58:56;;;;;;;;;;;;;;;11.39;37.45;100662.69;5070392;28;19913;-38
2023/02/14 13:01:46;;;;;;;;;;;;;;;11.59;37.37;100651.44;5073058;28;19995;-36
2023/02/14 13:04:12;;;;;;;;;;;;;;;11.89;37.58;100663.69;5074313;28;20058;-36
2023/02/14 13:06:39;;;;;;;;;;;;;;;11.38;37.75;100657.53;5073919;28;19964;-37